sensor_id;sensor_type;location;lat;lon;timestamp;temperature;humidity
61253;DHT22;47127;47.516;8.596;2022-09-13T00:01:29;16.00;99.90
61253;DHT22;47127;47.516;8.596;2022-09-13T00:03:55;16.10;99.90
61253;DHT22;47127;47.516;8.596;2022-09-13T00:06:21;16.10;99.90
61253;DHT22;47127;47.516;8.596;2022-09-13T00:08:47;16.10;99.90
61253;DHT22;47127;47.516;8.596;2022-09-13T00:11:25;16.10;99.90
61253;DHT22;47127;47.516;8.596;2022-09-13T00:13:51;16.10;99.90
61253;DHT22;47127;47.516;8.596;2022-09-13T00:16:19;16.00;99.90
61253;DHT22;47127;47.516;8.596;2022-09-13T00:18:45;15.90;99.90
61253;DHT22;47127;47.516;8.596;2022-09-13T00:21:16;15.90;99.90
61253;DHT22;47127;47.516;8.596;2022-09-13T00:23:47;15.90;99.90
61253;DHT22;47127;47.516;8.596;2022-09-13T00:26:15;15.90;99.90
61253;DHT22;47127;47.516;8.596;2022-09-13T00:28:41;15.90;99.90
61253;DHT22;47127;47.516;8.596;2022-09-13T00:31:08;15.80;99.90
61253;DHT22;47127;47.516;8.596;2022-09-13T00:33:34;15.70;99.90
61253;DHT22;47127;47.516;8.596;2022-09-13T00:36:09;15.60;99.90
61253;DHT22;47127;47.516;8.596;2022-09-13T00:38:39;15.40;99.90
61253;DHT22;47127;47.516;8.596;2022-09-13T00:41:05;15.40;99.90
61253;DHT22;47127;47.516;8.596;2022-09-13T00:49:01;15.40;99.90
61253;DHT22;47127;47.516;8.596;2022-09-13T00:51:29;15.40;99.90
61253;DHT22;47127;47.516;8.596;2022-09-13T00:53:56;15.50;99.90
61253;DHT22;47127;47.516;8.596;2022-09-13T00:56:34;15.50;99.90
61253;DHT22;47127;47.516;8.596;2022-09-13T00:59:11;15.50;99.90
61253;DHT22;47127;47.516;8.596;2022-09-13T01:01:48;15.60;99.90
61253;DHT22;47127;47.516;8.596;2022-09-13T01:04:14;15.60;99.90
61253;DHT22;47127;47.516;8.596;2022-09-13T01:06:42;15.50;99.90
61253;DHT22;47127;47.516;8.596;2022-09-13T01:09:10;15.50;99.90
61253;DHT22;47127;47.516;8.596;2022-09-13T01:11:45;15.30;99.90
61253;DHT22;47127;47.516;8.596;2022-09-13T01:14:13;15.20;99.90
61253;DHT22;47127;47.516;8.596;2022-09-13T01:16:39;15.20;99.90
61253;DHT22;47127;47.516;8.596;2022-09-13T01:19:05;15.30;99.90
61253;DHT22;47127;47.516;8.596;2022-09-13T01:30:02;15.40;99.90
61253;DHT22;47127;47.516;8.596;2022-09-13T01:32:55;15.40;99.90
61253;DHT22;47127;47.516;8.596;2022-09-13T01:46:08;15.00;99.90
61253;DHT22;47127;47.516;8.596;2022-09-13T01:54:09;14.90;99.90
61253;DHT22;47127;47.516;8.596;2022-09-13T01:59:52;15.10;99.90
61253;DHT22;47127;47.516;8.596;2022-09-13T02:04:50;15.10;99.90
61253;DHT22;47127;47.516;8.596;2022-09-13T02:07:23;15.10;99.90
61253;DHT22;47127;47.516;8.596;2022-09-13T02:09:55;15.00;99.90
61253;DHT22;47127;47.516;8.596;2022-09-13T02:12:24;15.00;99.90
61253;DHT22;47127;47.516;8.596;2022-09-13T02:15:11;15.00;99.90
61253;DHT22;47127;47.516;8.596;2022-09-13T02:17:44;14.90;99.90
61253;DHT22;47127;47.516;8.596;2022-09-13T02:20:27;14.90;99.90
61253;DHT22;47127;47.516;8.596;2022-09-13T02:22:57;14.90;99.90
61253;DHT22;47127;47.516;8.596;2022-09-13T02:25:25;14.80;99.90
61253;DHT22;47127;47.516;8.596;2022-09-13T02:27:55;14.70;99.90
61253;DHT22;47127;47.516;8.596;2022-09-13T02:30:24;14.60;99.90
61253;DHT22;47127;47.516;8.596;2022-09-13T02:32:55;14.60;99.90
61253;DHT22;47127;47.516;8.596;2022-09-13T02:35:35;14.60;99.90
61253;DHT22;47127;47.516;8.596;2022-09-13T02:38:21;14.60;99.90
61253;DHT22;47127;47.516;8.596;2022-09-13T02:40:55;14.70;99.90
61253;DHT22;47127;47.516;8.596;2022-09-13T02:43:26;14.80;99.90
61253;DHT22;47127;47.516;8.596;2022-09-13T02:48:47;14.80;99.90
61253;DHT22;47127;47.516;8.596;2022-09-13T02:51:28;14.70;99.90
61253;DHT22;47127;47.516;8.596;2022-09-13T02:54:04;14.60;99.90
61253;DHT22;47127;47.516;8.596;2022-09-13T02:56:40;14.60;99.90
61253;DHT22;47127;47.516;8.596;2022-09-13T02:59:16;14.60;99.90
61253;DHT22;47127;47.516;8.596;2022-09-13T03:01:49;14.70;99.90
61253;DHT22;47127;47.516;8.596;2022-09-13T03:04:16;14.70;99.90
61253;DHT22;47127;47.516;8.596;2022-09-13T03:06:42;14.80;99.90
61253;DHT22;47127;47.516;8.596;2022-09-13T03:09:08;14.80;99.90
61253;DHT22;47127;47.516;8.596;2022-09-13T03:15:23;14.70;99.90
61253;DHT22;47127;47.516;8.596;2022-09-13T03:21:00;14.70;99.90
61253;DHT22;47127;47.516;8.596;2022-09-13T03:26:19;14.70;99.90
61253;DHT22;47127;47.516;8.596;2022-09-13T03:31:31;14.80;99.90
61253;DHT22;47127;47.516;8.596;2022-09-13T03:34:06;14.80;99.90
61253;DHT22;47127;47.516;8.596;2022-09-13T03:36:41;14.90;99.90
61253;DHT22;47127;47.516;8.596;2022-09-13T03:39:15;14.80;99.90
61253;DHT22;47127;47.516;8.596;2022-09-13T03:41:46;14.80;99.90
61253;DHT22;47127;47.516;8.596;2022-09-13T03:44:17;14.80;99.90
61253;DHT22;47127;47.516;8.596;2022-09-13T03:46:47;14.70;99.90
61253;DHT22;47127;47.516;8.596;2022-09-13T03:49:15;14.70;99.90
61253;DHT22;47127;47.516;8.596;2022-09-13T03:51:46;14.70;99.90
61253;DHT22;47127;47.516;8.596;2022-09-13T03:54:22;14.70;99.90
61253;DHT22;47127;47.516;8.596;2022-09-13T03:57:08;14.70;99.90
61253;DHT22;47127;47.516;8.596;2022-09-13T03:59:35;14.60;99.90
61253;DHT22;47127;47.516;8.596;2022-09-13T04:02:03;14.60;99.90
61253;DHT22;47127;47.516;8.596;2022-09-13T04:04:29;14.70;99.90
61253;DHT22;47127;47.516;8.596;2022-09-13T04:06:54;14.70;99.90
61253;DHT22;47127;47.516;8.596;2022-09-13T04:09:21;14.70;99.90
61253;DHT22;47127;47.516;8.596;2022-09-13T04:11:47;14.70;99.90
61253;DHT22;47127;47.516;8.596;2022-09-13T04:14:13;14.60;99.90
61253;DHT22;47127;47.516;8.596;2022-09-13T04:16:40;14.60;99.90
61253;DHT22;47127;47.516;8.596;2022-09-13T04:19:06;14.60;99.90
61253;DHT22;47127;47.516;8.596;2022-09-13T04:21:31;14.60;99.90
61253;DHT22;47127;47.516;8.596;2022-09-13T04:23:57;14.50;99.90
61253;DHT22;47127;47.516;8.596;2022-09-13T04:26:22;14.60;99.90
61253;DHT22;47127;47.516;8.596;2022-09-13T04:28:48;14.50;99.90
61253;DHT22;47127;47.516;8.596;2022-09-13T04:31:13;14.60;99.90
61253;DHT22;47127;47.516;8.596;2022-09-13T04:33:39;14.50;99.90
61253;DHT22;47127;47.516;8.596;2022-09-13T04:36:05;14.50;99.90
61253;DHT22;47127;47.516;8.596;2022-09-13T04:38:31;14.50;99.90
61253;DHT22;47127;47.516;8.596;2022-09-13T04:40:57;14.50;99.90
61253;DHT22;47127;47.516;8.596;2022-09-13T04:43:23;14.50;99.90
61253;DHT22;47127;47.516;8.596;2022-09-13T04:45:49;14.50;99.90
61253;DHT22;47127;47.516;8.596;2022-09-13T04:48:16;14.60;99.90
61253;DHT22;47127;47.516;8.596;2022-09-13T04:50:41;14.70;99.90
61253;DHT22;47127;47.516;8.596;2022-09-13T04:53:07;14.80;99.90
61253;DHT22;47127;47.516;8.596;2022-09-13T04:55:33;14.70;99.90
61253;DHT22;47127;47.516;8.596;2022-09-13T04:57:58;14.70;99.90
61253;DHT22;47127;47.516;8.596;2022-09-13T05:00:24;14.60;99.90
61253;DHT22;47127;47.516;8.596;2022-09-13T05:02:54;14.50;99.90
61253;DHT22;47127;47.516;8.596;2022-09-13T05:05:21;14.60;99.90
61253;DHT22;47127;47.516;8.596;2022-09-13T05:07:49;14.60;99.90
61253;DHT22;47127;47.516;8.596;2022-09-13T05:10:15;14.70;99.90
61253;DHT22;47127;47.516;8.596;2022-09-13T05:12:40;14.70;99.90
61253;DHT22;47127;47.516;8.596;2022-09-13T05:15:07;14.70;99.90
61253;DHT22;47127;47.516;8.596;2022-09-13T05:17:32;14.80;99.90
61253;DHT22;47127;47.516;8.596;2022-09-13T05:19:58;14.80;99.90
61253;DHT22;47127;47.516;8.596;2022-09-13T05:22:24;14.60;99.90
61253;DHT22;47127;47.516;8.596;2022-09-13T05:24:49;14.50;99.90
61253;DHT22;47127;47.516;8.596;2022-09-13T05:27:15;14.40;99.90
61253;DHT22;47127;47.516;8.596;2022-09-13T05:29:40;14.30;99.90
61253;DHT22;47127;47.516;8.596;2022-09-13T05:32:06;14.30;99.90
61253;DHT22;47127;47.516;8.596;2022-09-13T05:34:32;14.30;99.90
61253;DHT22;47127;47.516;8.596;2022-09-13T05:36:57;14.30;99.90
61253;DHT22;47127;47.516;8.596;2022-09-13T05:39:23;14.30;99.90
61253;DHT22;47127;47.516;8.596;2022-09-13T05:41:49;14.20;99.90
61253;DHT22;47127;47.516;8.596;2022-09-13T05:44:14;14.30;99.90
61253;DHT22;47127;47.516;8.596;2022-09-13T05:46:41;14.40;99.90
61253;DHT22;47127;47.516;8.596;2022-09-13T05:49:07;14.40;99.90
61253;DHT22;47127;47.516;8.596;2022-09-13T05:51:32;14.60;99.90
61253;DHT22;47127;47.516;8.596;2022-09-13T05:53:58;14.70;99.90
61253;DHT22;47127;47.516;8.596;2022-09-13T05:56:27;14.80;99.90
61253;DHT22;47127;47.516;8.596;2022-09-13T05:58:53;14.90;99.90
61253;DHT22;47127;47.516;8.596;2022-09-13T06:01:21;15.10;99.90
61253;DHT22;47127;47.516;8.596;2022-09-13T06:03:52;15.20;99.90
61253;DHT22;47127;47.516;8.596;2022-09-13T06:06:18;15.20;99.90
61253;DHT22;47127;47.516;8.596;2022-09-13T06:08:44;15.20;99.90
61253;DHT22;47127;47.516;8.596;2022-09-13T06:11:11;15.20;99.90
61253;DHT22;47127;47.516;8.596;2022-09-13T06:13:38;15.20;99.90
61253;DHT22;47127;47.516;8.596;2022-09-13T06:16:06;15.20;99.90
61253;DHT22;47127;47.516;8.596;2022-09-13T06:18:32;15.20;99.90
61253;DHT22;47127;47.516;8.596;2022-09-13T06:21:09;15.20;99.90
61253;DHT22;47127;47.516;8.596;2022-09-13T06:23:35;15.30;99.90
61253;DHT22;47127;47.516;8.596;2022-09-13T06:26:09;15.40;99.90
61253;DHT22;47127;47.516;8.596;2022-09-13T06:28:36;15.40;99.90
61253;DHT22;47127;47.516;8.596;2022-09-13T06:31:07;15.40;99.90
61253;DHT22;47127;47.516;8.596;2022-09-13T06:33:34;15.50;99.90
61253;DHT22;47127;47.516;8.596;2022-09-13T06:36:05;15.60;99.90
61253;DHT22;47127;47.516;8.596;2022-09-13T06:38:31;15.60;99.90
61253;DHT22;47127;47.516;8.596;2022-09-13T06:41:15;15.60;99.90
61253;DHT22;47127;47.516;8.596;2022-09-13T06:43:43;15.60;99.90
61253;DHT22;47127;47.516;8.596;2022-09-13T06:46:11;15.60;99.90
61253;DHT22;47127;47.516;8.596;2022-09-13T06:48:38;15.60;99.90
61253;DHT22;47127;47.516;8.596;2022-09-13T06:51:10;15.70;99.90
61253;DHT22;47127;47.516;8.596;2022-09-13T06:53:36;15.70;99.90
61253;DHT22;47127;47.516;8.596;2022-09-13T06:56:13;15.70;99.90
61253;DHT22;47127;47.516;8.596;2022-09-13T06:58:41;15.70;99.90
61253;DHT22;47127;47.516;8.596;2022-09-13T07:01:16;15.80;99.90
61253;DHT22;47127;47.516;8.596;2022-09-13T07:03:44;15.70;99.90
61253;DHT22;47127;47.516;8.596;2022-09-13T07:06:29;15.80;99.90
61253;DHT22;47127;47.516;8.596;2022-09-13T07:08:57;15.90;99.90
61253;DHT22;47127;47.516;8.596;2022-09-13T07:11:25;16.00;99.90
61253;DHT22;47127;47.516;8.596;2022-09-13T07:13:53;16.10;99.90
61253;DHT22;47127;47.516;8.596;2022-09-13T07:16:20;16.20;99.90
61253;DHT22;47127;47.516;8.596;2022-09-13T07:19:00;16.30;99.90
61253;DHT22;47127;47.516;8.596;2022-09-13T07:21:27;16.40;99.90
61253;DHT22;47127;47.516;8.596;2022-09-13T07:23:54;16.50;99.90
61253;DHT22;47127;47.516;8.596;2022-09-13T07:26:20;16.60;99.90
61253;DHT22;47127;47.516;8.596;2022-09-13T07:28:48;16.70;99.90
61253;DHT22;47127;47.516;8.596;2022-09-13T07:31:25;16.70;99.90
61253;DHT22;47127;47.516;8.596;2022-09-13T07:33:56;16.80;99.90
61253;DHT22;47127;47.516;8.596;2022-09-13T07:36:22;16.80;99.90
61253;DHT22;47127;47.516;8.596;2022-09-13T07:38:48;16.90;99.90
61253;DHT22;47127;47.516;8.596;2022-09-13T07:41:19;16.90;99.90
61253;DHT22;47127;47.516;8.596;2022-09-13T07:43:45;17.00;99.90
61253;DHT22;47127;47.516;8.596;2022-09-13T07:46:13;17.10;99.90
61253;DHT22;47127;47.516;8.596;2022-09-13T07:48:41;17.30;99.90
61253;DHT22;47127;47.516;8.596;2022-09-13T07:51:09;17.30;99.90
61253;DHT22;47127;47.516;8.596;2022-09-13T07:53:36;17.40;99.90
61253;DHT22;47127;47.516;8.596;2022-09-13T07:56:23;17.50;99.90
61253;DHT22;47127;47.516;8.596;2022-09-13T07:58:50;17.50;99.90
61253;DHT22;47127;47.516;8.596;2022-09-13T08:01:19;17.60;99.90
61253;DHT22;47127;47.516;8.596;2022-09-13T08:09:36;17.90;99.90
61253;DHT22;47127;47.516;8.596;2022-09-13T08:12:02;18.00;99.90
61253;DHT22;47127;47.516;8.596;2022-09-13T08:14:28;18.00;99.90
61253;DHT22;47127;47.516;8.596;2022-09-13T08:16:54;18.10;99.90
61253;DHT22;47127;47.516;8.596;2022-09-13T08:19:21;18.10;99.90
61253;DHT22;47127;47.516;8.596;2022-09-13T08:21:46;18.10;99.90
61253;DHT22;47127;47.516;8.596;2022-09-13T08:24:15;18.20;99.90
61253;DHT22;47127;47.516;8.596;2022-09-13T08:26:41;18.20;99.90
61253;DHT22;47127;47.516;8.596;2022-09-13T08:29:06;18.20;99.90
61253;DHT22;47127;47.516;8.596;2022-09-13T08:31:33;18.40;99.90
61253;DHT22;47127;47.516;8.596;2022-09-13T08:33:58;18.40;99.90
61253;DHT22;47127;47.516;8.596;2022-09-13T08:36:26;18.60;99.90
61253;DHT22;47127;47.516;8.596;2022-09-13T08:38:57;18.70;99.90
61253;DHT22;47127;47.516;8.596;2022-09-13T08:46:46;19.10;99.90
61253;DHT22;47127;47.516;8.596;2022-09-13T08:49:25;19.30;99.90
61253;DHT22;47127;47.516;8.596;2022-09-13T08:51:58;19.30;99.90
61253;DHT22;47127;47.516;8.596;2022-09-13T08:54:25;19.50;99.90
61253;DHT22;47127;47.516;8.596;2022-09-13T08:57:16;19.60;99.90
61253;DHT22;47127;47.516;8.596;2022-09-13T09:00:16;19.70;99.90
61253;DHT22;47127;47.516;8.596;2022-09-13T09:05:17;19.90;99.90
61253;DHT22;47127;47.516;8.596;2022-09-13T09:08:03;20.00;99.90
61253;DHT22;47127;47.516;8.596;2022-09-13T09:10:41;20.10;99.90
61253;DHT22;47127;47.516;8.596;2022-09-13T09:15:55;20.30;99.90
61253;DHT22;47127;47.516;8.596;2022-09-13T09:18:37;20.40;99.90
61253;DHT22;47127;47.516;8.596;2022-09-13T09:21:10;20.60;99.90
61253;DHT22;47127;47.516;8.596;2022-09-13T09:23:48;20.70;99.90
61253;DHT22;47127;47.516;8.596;2022-09-13T09:28:50;20.90;99.90
61253;DHT22;47127;47.516;8.596;2022-09-13T09:37:36;21.30;99.90
61253;DHT22;47127;47.516;8.596;2022-09-13T09:40:05;21.40;99.90
61253;DHT22;47127;47.516;8.596;2022-09-13T09:42:44;21.40;99.90
61253;DHT22;47127;47.516;8.596;2022-09-13T09:45:23;21.60;99.90
61253;DHT22;47127;47.516;8.596;2022-09-13T09:47:51;21.70;99.90
61253;DHT22;47127;47.516;8.596;2022-09-13T09:56:02;22.00;99.90
61253;DHT22;47127;47.516;8.596;2022-09-13T09:58:42;22.20;99.90
61253;DHT22;47127;47.516;8.596;2022-09-13T10:01:18;22.30;99.90
61253;DHT22;47127;47.516;8.596;2022-09-13T10:06:20;22.50;99.90
61253;DHT22;47127;47.516;8.596;2022-09-13T10:08:57;22.60;99.90
61253;DHT22;47127;47.516;8.596;2022-09-13T10:11:41;22.60;99.90
61253;DHT22;47127;47.516;8.596;2022-09-13T10:14:27;22.80;99.90
61253;DHT22;47127;47.516;8.596;2022-09-13T10:20:04;23.00;99.90
61253;DHT22;47127;47.516;8.596;2022-09-13T10:22:43;23.10;99.90
61253;DHT22;47127;47.516;8.596;2022-09-13T10:25:22;23.30;99.90
61253;DHT22;47127;47.516;8.596;2022-09-13T10:27:51;23.40;99.90
61253;DHT22;47127;47.516;8.596;2022-09-13T10:30:37;23.40;99.90
61253;DHT22;47127;47.516;8.596;2022-09-13T10:33:05;23.50;99.90
61253;DHT22;47127;47.516;8.596;2022-09-13T10:35:31;23.60;99.90
61253;DHT22;47127;47.516;8.596;2022-09-13T10:37:57;23.60;99.90
61253;DHT22;47127;47.516;8.596;2022-09-13T10:40:31;23.60;99.90
61253;DHT22;47127;47.516;8.596;2022-09-13T10:43:11;23.70;99.90
61253;DHT22;47127;47.516;8.596;2022-09-13T10:45:39;23.80;99.90
61253;DHT22;47127;47.516;8.596;2022-09-13T10:48:15;24.00;99.90
61253;DHT22;47127;47.516;8.596;2022-09-13T10:51:06;24.10;99.90
61253;DHT22;47127;47.516;8.596;2022-09-13T10:53:38;24.30;99.60
61253;DHT22;47127;47.516;8.596;2022-09-13T10:56:07;24.30;99.40
61253;DHT22;47127;47.516;8.596;2022-09-13T10:58:43;24.50;99.50
61253;DHT22;47127;47.516;8.596;2022-09-13T11:06:27;24.90;99.40
61253;DHT22;47127;47.516;8.596;2022-09-13T11:09:14;24.90;99.00
61253;DHT22;47127;47.516;8.596;2022-09-13T11:17:48;25.30;98.80
61253;DHT22;47127;47.516;8.596;2022-09-13T11:20:02;25.40;98.30
61253;DHT22;47127;47.516;8.596;2022-09-13T11:22:57;25.30;98.40
61253;DHT22;47127;47.516;8.596;2022-09-13T11:30:24;25.60;98.10
61253;DHT22;47127;47.516;8.596;2022-09-13T11:33:03;25.80;96.50
61253;DHT22;47127;47.516;8.596;2022-09-13T11:35:52;26.00;95.70
61253;DHT22;47127;47.516;8.596;2022-09-13T11:41:29;26.60;94.30
61253;DHT22;47127;47.516;8.596;2022-09-13T11:44:17;26.80;93.30
61253;DHT22;47127;47.516;8.596;2022-09-13T11:49:51;27.00;92.40
61253;DHT22;47127;47.516;8.596;2022-09-13T11:55:16;26.80;91.50
61253;DHT22;47127;47.516;8.596;2022-09-13T11:57:52;26.90;91.30
61253;DHT22;47127;47.516;8.596;2022-09-13T12:00:40;26.90;92.80
61253;DHT22;47127;47.516;8.596;2022-09-13T12:06:03;26.80;92.60
61253;DHT22;47127;47.516;8.596;2022-09-13T12:11:24;26.90;93.40
61253;DHT22;47127;47.516;8.596;2022-09-13T12:13:56;27.30;92.80
61253;DHT22;47127;47.516;8.596;2022-09-13T12:16:25;27.30;92.00
61253;DHT22;47127;47.516;8.596;2022-09-13T12:18:56;27.40;91.20
61253;DHT22;47127;47.516;8.596;2022-09-13T12:21:27;27.20;90.90
61253;DHT22;47127;47.516;8.596;2022-09-13T12:26:43;26.90;94.70
61253;DHT22;47127;47.516;8.596;2022-09-13T12:29:18;26.80;94.80
61253;DHT22;47127;47.516;8.596;2022-09-13T12:31:45;26.80;95.30
61253;DHT22;47127;47.516;8.596;2022-09-13T12:34:21;26.80;94.60
61253;DHT22;47127;47.516;8.596;2022-09-13T12:48:40;27.70;94.10
61253;DHT22;47127;47.516;8.596;2022-09-13T13:00:07;28.20;92.90
61253;DHT22;47127;47.516;8.596;2022-09-13T13:02:39;28.20;92.50
61253;DHT22;47127;47.516;8.596;2022-09-13T13:07:40;28.00;92.40
61253;DHT22;47127;47.516;8.596;2022-09-13T13:10:23;27.80;92.50
61253;DHT22;47127;47.516;8.596;2022-09-13T13:12:50;27.70;92.50
61253;DHT22;47127;47.516;8.596;2022-09-13T13:17:52;27.70;92.50
61253;DHT22;47127;47.516;8.596;2022-09-13T13:20:43;27.60;92.50
61253;DHT22;47127;47.516;8.596;2022-09-13T13:23:21;27.50;92.70
61253;DHT22;47127;47.516;8.596;2022-09-13T13:41:58;26.60;96.20
61253;DHT22;47127;47.516;8.596;2022-09-13T13:59:54;25.80;99.10
61253;DHT22;47127;47.516;8.596;2022-09-13T14:02:29;25.80;99.00
61253;DHT22;47127;47.516;8.596;2022-09-13T14:13:27;25.90;99.90
61253;DHT22;47127;47.516;8.596;2022-09-13T14:16:19;26.00;99.90
61253;DHT22;47127;47.516;8.596;2022-09-13T14:22:06;26.20;99.90
61253;DHT22;47127;47.516;8.596;2022-09-13T14:24:37;26.20;99.90
61253;DHT22;47127;47.516;8.596;2022-09-13T14:27:03;26.20;99.90
61253;DHT22;47127;47.516;8.596;2022-09-13T14:29:29;26.20;99.90
61253;DHT22;47127;47.516;8.596;2022-09-13T14:32:06;26.30;99.90
61253;DHT22;47127;47.516;8.596;2022-09-13T14:34:36;26.40;99.60
61253;DHT22;47127;47.516;8.596;2022-09-13T14:37:16;26.40;99.60
61253;DHT22;47127;47.516;8.596;2022-09-13T14:42:43;26.40;99.00
61253;DHT22;47127;47.516;8.596;2022-09-13T14:45:32;26.30;99.20
61253;DHT22;47127;47.516;8.596;2022-09-13T14:48:06;26.40;99.40
61253;DHT22;47127;47.516;8.596;2022-09-13T14:50:39;26.40;98.60
61253;DHT22;47127;47.516;8.596;2022-09-13T14:53:15;26.40;98.50
61253;DHT22;47127;47.516;8.596;2022-09-13T14:55:45;26.60;97.90
61253;DHT22;47127;47.516;8.596;2022-09-13T14:58:20;26.50;97.60
61253;DHT22;47127;47.516;8.596;2022-09-13T15:03:21;26.40;97.50
61253;DHT22;47127;47.516;8.596;2022-09-13T15:05:52;26.30;97.40
61253;DHT22;47127;47.516;8.596;2022-09-13T15:08:27;26.30;98.10
61253;DHT22;47127;47.516;8.596;2022-09-13T15:11:06;26.10;98.10
61253;DHT22;47127;47.516;8.596;2022-09-13T15:13:36;26.10;97.90
61253;DHT22;47127;47.516;8.596;2022-09-13T15:16:29;25.90;97.90
61253;DHT22;47127;47.516;8.596;2022-09-13T15:19:26;25.80;97.70
61253;DHT22;47127;47.516;8.596;2022-09-13T15:22:01;25.60;98.00
61253;DHT22;47127;47.516;8.596;2022-09-13T15:24:33;25.60;98.00
61253;DHT22;47127;47.516;8.596;2022-09-13T15:27:13;25.50;98.40
61253;DHT22;47127;47.516;8.596;2022-09-13T15:29:47;25.50;99.10
61253;DHT22;47127;47.516;8.596;2022-09-13T15:32:39;25.50;99.90
61253;DHT22;47127;47.516;8.596;2022-09-13T15:35:29;25.50;99.90
61253;DHT22;47127;47.516;8.596;2022-09-13T15:40:43;25.20;99.90
61253;DHT22;47127;47.516;8.596;2022-09-13T15:43:08;25.20;99.90
61253;DHT22;47127;47.516;8.596;2022-09-13T15:45:34;25.20;99.90
61253;DHT22;47127;47.516;8.596;2022-09-13T15:47:59;25.20;99.90
61253;DHT22;47127;47.516;8.596;2022-09-13T15:50:27;25.10;99.90
61253;DHT22;47127;47.516;8.596;2022-09-13T15:52:56;25.00;99.90
61253;DHT22;47127;47.516;8.596;2022-09-13T15:55:23;24.90;99.90
61253;DHT22;47127;47.516;8.596;2022-09-13T15:57:49;24.90;99.90
61253;DHT22;47127;47.516;8.596;2022-09-13T16:00:17;24.80;99.90
61253;DHT22;47127;47.516;8.596;2022-09-13T16:02:43;24.70;99.90
61253;DHT22;47127;47.516;8.596;2022-09-13T16:05:09;24.60;99.90
61253;DHT22;47127;47.516;8.596;2022-09-13T16:07:36;24.50;99.90
61253;DHT22;47127;47.516;8.596;2022-09-13T16:10:05;24.40;99.90
61253;DHT22;47127;47.516;8.596;2022-09-13T16:12:31;24.30;99.90
61253;DHT22;47127;47.516;8.596;2022-09-13T16:14:56;24.30;99.90
61253;DHT22;47127;47.516;8.596;2022-09-13T16:17:26;24.30;99.90
61253;DHT22;47127;47.516;8.596;2022-09-13T16:19:53;24.30;99.90
61253;DHT22;47127;47.516;8.596;2022-09-13T16:22:19;24.30;99.90
61253;DHT22;47127;47.516;8.596;2022-09-13T16:24:45;24.30;99.90
61253;DHT22;47127;47.516;8.596;2022-09-13T16:27:15;24.40;99.90
61253;DHT22;47127;47.516;8.596;2022-09-13T16:29:42;24.30;99.90
61253;DHT22;47127;47.516;8.596;2022-09-13T16:32:08;24.30;99.90
61253;DHT22;47127;47.516;8.596;2022-09-13T16:34:33;24.20;99.90
61253;DHT22;47127;47.516;8.596;2022-09-13T16:36:59;24.20;99.90
61253;DHT22;47127;47.516;8.596;2022-09-13T16:39:25;24.20;99.90
61253;DHT22;47127;47.516;8.596;2022-09-13T16:41:50;24.00;99.90
61253;DHT22;47127;47.516;8.596;2022-09-13T16:44:16;24.00;99.90
61253;DHT22;47127;47.516;8.596;2022-09-13T16:46:42;23.90;99.90
61253;DHT22;47127;47.516;8.596;2022-09-13T16:49:08;23.90;99.90
61253;DHT22;47127;47.516;8.596;2022-09-13T16:51:34;23.90;99.90
61253;DHT22;47127;47.516;8.596;2022-09-13T16:54:00;23.90;99.90
61253;DHT22;47127;47.516;8.596;2022-09-13T16:56:27;23.70;99.90
61253;DHT22;47127;47.516;8.596;2022-09-13T16:58:54;23.60;99.90
61253;DHT22;47127;47.516;8.596;2022-09-13T17:01:23;23.40;99.90
61253;DHT22;47127;47.516;8.596;2022-09-13T17:03:49;23.30;99.90
61253;DHT22;47127;47.516;8.596;2022-09-13T17:06:16;23.30;99.90
61253;DHT22;47127;47.516;8.596;2022-09-13T17:08:50;23.20;99.90
61253;DHT22;47127;47.516;8.596;2022-09-13T17:11:19;23.20;99.90
61253;DHT22;47127;47.516;8.596;2022-09-13T17:13:45;23.10;99.90
61253;DHT22;47127;47.516;8.596;2022-09-13T17:16:29;23.00;99.90
61253;DHT22;47127;47.516;8.596;2022-09-13T17:18:57;23.00;99.90
61253;DHT22;47127;47.516;8.596;2022-09-13T17:21:24;23.00;99.90
61253;DHT22;47127;47.516;8.596;2022-09-13T17:23:50;22.90;99.90
61253;DHT22;47127;47.516;8.596;2022-09-13T17:26:16;22.80;99.90
61253;DHT22;47127;47.516;8.596;2022-09-13T17:28:41;22.60;99.90
61253;DHT22;47127;47.516;8.596;2022-09-13T17:31:07;22.50;99.90
61253;DHT22;47127;47.516;8.596;2022-09-13T17:33:33;22.30;99.90
61253;DHT22;47127;47.516;8.596;2022-09-13T17:36:00;22.30;99.90
61253;DHT22;47127;47.516;8.596;2022-09-13T17:38:26;22.20;99.90
61253;DHT22;47127;47.516;8.596;2022-09-13T17:41:02;22.10;99.90
61253;DHT22;47127;47.516;8.596;2022-09-13T17:43:28;22.00;99.90
61253;DHT22;47127;47.516;8.596;2022-09-13T17:45:54;22.00;99.90
61253;DHT22;47127;47.516;8.596;2022-09-13T17:48:20;21.80;99.90
61253;DHT22;47127;47.516;8.596;2022-09-13T17:50:45;21.80;99.90
61253;DHT22;47127;47.516;8.596;2022-09-13T17:53:11;21.70;99.90
61253;DHT22;47127;47.516;8.596;2022-09-13T17:55:47;21.80;99.90
61253;DHT22;47127;47.516;8.596;2022-09-13T17:58:13;21.80;99.90
61253;DHT22;47127;47.516;8.596;2022-09-13T18:00:39;21.80;99.90
61253;DHT22;47127;47.516;8.596;2022-09-13T18:03:04;21.70;99.90
61253;DHT22;47127;47.516;8.596;2022-09-13T18:05:30;21.80;99.90
61253;DHT22;47127;47.516;8.596;2022-09-13T18:07:55;21.80;99.90
61253;DHT22;47127;47.516;8.596;2022-09-13T18:10:21;21.90;99.90
61253;DHT22;47127;47.516;8.596;2022-09-13T18:12:47;21.90;99.90
61253;DHT22;47127;47.516;8.596;2022-09-13T18:15:13;21.80;99.90
61253;DHT22;47127;47.516;8.596;2022-09-13T18:17:38;21.60;99.90
61253;DHT22;47127;47.516;8.596;2022-09-13T18:20:04;21.50;99.90
61253;DHT22;47127;47.516;8.596;2022-09-13T18:22:29;21.50;99.90
61253;DHT22;47127;47.516;8.596;2022-09-13T18:24:55;21.50;99.90
61253;DHT22;47127;47.516;8.596;2022-09-13T18:27:20;21.60;99.90
61253;DHT22;47127;47.516;8.596;2022-09-13T18:29:46;21.60;99.90
61253;DHT22;47127;47.516;8.596;2022-09-13T18:32:11;21.50;99.90
61253;DHT22;47127;47.516;8.596;2022-09-13T18:34:37;21.50;99.90
61253;DHT22;47127;47.516;8.596;2022-09-13T18:37:03;21.50;99.90
61253;DHT22;47127;47.516;8.596;2022-09-13T18:39:28;21.50;99.90
61253;DHT22;47127;47.516;8.596;2022-09-13T18:41:54;21.60;99.90
61253;DHT22;47127;47.516;8.596;2022-09-13T18:44:19;21.50;99.90
61253;DHT22;47127;47.516;8.596;2022-09-13T18:46:45;21.50;99.90
61253;DHT22;47127;47.516;8.596;2022-09-13T18:49:11;21.40;99.90
61253;DHT22;47127;47.516;8.596;2022-09-13T18:51:42;21.30;99.90
61253;DHT22;47127;47.516;8.596;2022-09-13T18:54:11;21.30;99.90
61253;DHT22;47127;47.516;8.596;2022-09-13T18:56:37;21.20;99.90
61253;DHT22;47127;47.516;8.596;2022-09-13T18:59:04;21.20;99.90
61253;DHT22;47127;47.516;8.596;2022-09-13T19:01:32;21.10;99.90
61253;DHT22;47127;47.516;8.596;2022-09-13T19:04:04;21.10;99.90
61253;DHT22;47127;47.516;8.596;2022-09-13T19:06:32;21.10;99.90
61253;DHT22;47127;47.516;8.596;2022-09-13T19:08:59;21.00;99.90